Tilden, TX

11:37 AM CDT on March 27, 2015 (GMT -0500)
Pleasanton Municipal | | Change Station
CLOSE
Current Station
Airport
Location: Pleasanton,
Elevation: 430 ft
Nearby Weather Stations

Elev 430 ft 28.96 °N, 98.52 °W | Updated 22 minutes ago

Clear
Clear
68 °F
Feels Like 68 °F
N
9
Wind Variable Wind from West

Today
High -- | Low -- °F
--% Chance of Precip.
Yesterday
High -- | Low -- °F
Precip. -- in
7:30 AM 7:49 PM
First Quarter, 54% visible
Pressure 30.25 in
Visibility 10.0 miles
Clouds Clear
Dew Point 39 °F
Humidity 35%
Rainfall 0.00 in
Snow Depth Not available.
UV 7 out of 12
Pollen 9.40 out of 12
Air Quality Not available.
Flu Activity Not available.
METAR KPEZ 271615Z AUTO 26008KT 10SM CLR 20/04 A3025 RMK AO2 T01980037

More Conditions Fewer Conditions

Pressure 30.25 in
Visibility 10.0 miles
Clouds Clear
Dew Point 39 °F
Humidity 35%
Rainfall 0.00 in
Snow Depth Not available.
UV 7 out of 12
Pollen 9.40 out of 12
Air Quality Not available.
Flu Activity Not available.
METAR KPEZ 271615Z AUTO 26008KT 10SM CLR 20/04 A3025 RMK AO2 T01980037

More Conditions Fewer Conditions

10-Day Weather Forecast

Almanac

Astronomy

Mar. 27, 2015 Rise Set
Actual Time
Civil Twilight
Nautical Twilight
Astronomical Twilight
Moon
Length of Visible Light
Length of Day
Tomorrow will be .
, % of the Moon is Illuminated

Today's Extremes

State Highs State Lows

Community

WunderPhotos

Upload Photos

1,808,771 photos uploaded!

WunderBlogs® & News

Nearby

Air Quality

  Air Quality AQ Index Pollutant
Not available.

Snow Depth

Station Depth Elevation

Earthquake Activity

City Distance Mag. Time & Date
Minimum magnitude displayed is 2.5.

Coastal Water Temperatures

Place Temperature

Stations

Nearby Weather Stations

Station Location Temp. Windchill Dew Point Humidity Wind Precip. Elev Updated Type